Urdampilleta, Argentina
Current Conditions -  °F | °C
As of 1:00 PM on Thursday 29 Jan 2015 (Local Time) from SAEZ Reporting Station
Clear Clear  
Wind Chill: 73°   Ceiling: Unl
Heat Index: 73°   Visibility: 6mi
Dew Point: 52°   Wind: 10mph
Humidity: 47%   Direction: 160°SSE
Pressure: 30.12"   Gusts: NA
Location:  36.43°S, 61.43°W
Report Text: SAEZ 291600Z 16009KT 110V180 CAVOK 23/11 Q1020
Loading
Personal Weather Stations






























Interactive Weather Map New forecast layout! Learn more

10-Day Weather Forecast

Advertisements
Track Severe Weather on mobile